BAW754 EGLL-LSGG
Flight info
| Callsign | BAW754 |
|---|---|
| Flight time | N/A |
| Altitude | 37000 |
| Route | MODMI M185 MID UL612 VEULE DCT PEKIM DCT PILUL DCT PIMUP/N0423F270 DCT PIXIS DCT PIBAT/N0396F230 DCT LUSAR |
| Aircraft | A320/M-SDE3FGHIRWY/LB1 |
Departure
| Time | 2026-05-05 20:11 |
|---|---|
| Airport | London Heathrow Airport (EGLL) |
Arrival
| Time | N/A |
|---|---|
| Airport | Geneva International Airport (LSGG) |
| Time | Latitude | Longitude | Altitude | Speed | Heading |
|---|---|---|---|---|---|
| 2026-05-05 19:45 | 51.47188 | -0.48589 | 86 ft | 0 kts | 269° |
| 2026-05-05 20:03 | 51.47188 | -0.48556 | 86 ft | 4 kts | 269° |
| 2026-05-05 20:04 | 51.47188 | -0.48526 | 86 ft | 3 kts | 269° |
| 2026-05-05 20:04 | 51.47193 | -0.48488 | 87 ft | 4 kts | 229° |
| 2026-05-05 20:04 | 51.47204 | -0.48474 | 88 ft | 4 kts | 187° |
| 2026-05-05 20:04 | 51.47226 | -0.48473 | 86 ft | 2 kts | 179° |
| 2026-05-05 20:05 | 51.47227 | -0.48473 | 86 ft | 0 kts | 179° |
| 2026-05-05 20:06 | 51.47216 | -0.48473 | 89 ft | 3 kts | 179° |
| 2026-05-05 20:07 | 51.47184 | -0.48472 | 88 ft | 6 kts | 179° |
| 2026-05-05 20:07 | 51.47136 | -0.48472 | 86 ft | 8 kts | 179° |
| 2026-05-05 20:07 | 51.47069 | -0.48471 | 86 ft | 11 kts | 179° |
| 2026-05-05 20:07 | 51.46985 | -0.48470 | 90 ft | 14 kts | 179° |
| 2026-05-05 20:08 | 51.46882 | -0.48469 | 88 ft | 16 kts | 179° |
| 2026-05-05 20:08 | 51.46803 | -0.48468 | 86 ft | 10 kts | 179° |
| 2026-05-05 20:08 | 51.46723 | -0.48467 | 86 ft | 13 kts | 179° |
| 2026-05-05 20:08 | 51.46649 | -0.48467 | 86 ft | 10 kts | 179° |
| 2026-05-05 20:09 | 51.46617 | -0.48467 | 86 ft | 5 kts | 180° |
| 2026-05-05 20:09 | 51.46573 | -0.48467 | 87 ft | 8 kts | 180° |
| 2026-05-05 20:09 | 51.46515 | -0.48466 | 86 ft | 6 kts | 177° |
| 2026-05-05 20:09 | 51.46490 | -0.48446 | 87 ft | 7 kts | 133° |
| 2026-05-05 20:10 | 51.46485 | -0.48434 | 87 ft | 7 kts | 126° |
| 2026-05-05 20:10 | 51.46480 | -0.48398 | 88 ft | 14 kts | 98° |
| 2026-05-05 20:10 | 51.46471 | -0.47812 | 90 ft | 90 kts | 89° |
| 2026-05-05 20:10 | 51.46482 | -0.46509 | 89 ft | 143 kts | 88° |
| 2026-05-05 20:11 | 51.46515 | -0.44681 | 287 ft | 173 kts | 85° |
| 2026-05-05 20:11 | 51.46560 | -0.42739 | 1101 ft | 172 kts | 89° |